createdAt,value
2023-06-17T00:01:49.763Z,3.75
2023-06-17T00:04:17.829Z,4.22
2023-06-17T00:06:47.178Z,3.83
2023-06-17T00:09:15.250Z,3.90
2023-06-17T00:11:43.345Z,3.88
2023-06-17T00:14:11.885Z,3.92
2023-06-17T00:16:45.030Z,3.70
2023-06-17T00:19:17.227Z,4.25
2023-06-17T00:21:45.419Z,3.75
2023-06-17T00:24:14.837Z,4.00
2023-06-17T00:26:43.073Z,3.80
2023-06-17T00:29:11.858Z,3.80
2023-06-17T00:31:40.032Z,3.90
2023-06-17T00:34:08.260Z,3.85
2023-06-17T00:36:36.396Z,4.05
2023-06-17T00:39:04.841Z,4.18
2023-06-17T00:41:34.308Z,4.20
2023-06-17T00:44:03.024Z,4.20
2023-06-17T00:46:39.040Z,3.72
2023-06-17T00:49:10.195Z,4.45
2023-06-17T00:51:39.938Z,3.92
2023-06-17T00:54:09.970Z,4.13
2023-06-17T00:56:41.409Z,3.75
2023-06-17T00:59:10.438Z,3.65
2023-06-17T01:01:38.569Z,4.15
2023-06-17T01:04:07.899Z,4.00
2023-06-17T01:06:45.226Z,3.85
2023-06-17T01:09:18.244Z,3.67
2023-06-17T01:11:49.767Z,3.67
2023-06-17T01:14:21.803Z,3.72
2023-06-17T01:16:54.601Z,3.75
2023-06-17T01:19:25.931Z,3.97
2023-06-17T01:21:58.966Z,4.05
2023-06-17T01:24:31.282Z,4.10
2023-06-17T01:27:01.299Z,3.75
2023-06-17T01:29:30.789Z,3.33
2023-06-17T01:32:00.159Z,3.65
2023-06-17T01:34:36.420Z,3.58
2023-06-17T01:37:07.493Z,4.10
2023-06-17T01:39:38.915Z,4.10
2023-06-17T01:42:12.308Z,3.85
2023-06-17T01:44:41.627Z,3.58
2023-06-17T01:47:10.879Z,3.80
2023-06-17T01:49:39.488Z,3.90
2023-06-17T01:52:10.642Z,3.58
2023-06-17T01:54:40.476Z,4.20
2023-06-17T01:57:09.988Z,3.50
2023-06-17T01:59:38.092Z,3.80
2023-06-17T02:02:06.544Z,3.60
2023-06-17T02:04:34.659Z,3.83
2023-06-17T02:07:02.918Z,4.00
2023-06-17T02:09:31.177Z,3.78
2023-06-17T02:12:00.639Z,4.43
2023-06-17T02:14:30.283Z,3.50
2023-06-17T02:16:58.441Z,3.85
2023-06-17T02:19:30.062Z,3.63
2023-06-17T02:21:58.364Z,4.00
2023-06-17T02:24:26.617Z,3.90
2023-06-17T02:26:54.778Z,3.85
2023-06-17T02:29:24.534Z,4.30
2023-06-17T02:31:53.106Z,3.88
2023-06-17T02:34:21.426Z,3.80
2023-06-17T02:36:50.867Z,3.97
2023-06-17T02:39:19.101Z,3.63
2023-06-17T02:41:47.167Z,4.03
2023-06-17T02:44:15.343Z,3.67
2023-06-17T02:46:44.842Z,4.00
2023-06-17T02:49:14.452Z,3.75
2023-06-17T02:51:43.157Z,3.97
2023-06-17T02:54:12.109Z,3.78
2023-06-17T02:56:40.518Z,3.83
2023-06-17T02:59:09.701Z,3.83
2023-06-17T03:01:40.378Z,4.18
2023-06-17T03:04:10.715Z,3.75
2023-06-17T03:06:42.139Z,3.55
2023-06-17T03:09:12.253Z,3.90
2023-06-17T03:11:41.282Z,4.07
2023-06-17T03:14:09.696Z,3.90
2023-06-17T03:16:41.745Z,3.90
2023-06-17T03:19:11.786Z,3.90
2023-06-17T03:21:42.229Z,4.00
2023-06-17T03:24:11.498Z,4.50
2023-06-17T03:26:39.983Z,4.03
2023-06-17T03:29:08.058Z,4.30
2023-06-17T03:31:36.376Z,4.05
2023-06-17T03:34:04.780Z,3.90
2023-06-17T03:36:34.981Z,3.97
2023-06-17T03:39:03.316Z,4.15
2023-06-17T03:41:34.561Z,4.38
2023-06-17T03:44:03.318Z,3.75
2023-06-17T03:46:31.456Z,4.22
2023-06-17T03:49:01.010Z,4.00
2023-06-17T03:51:29.039Z,4.10
2023-06-17T03:53:59.409Z,4.22
2023-06-17T03:56:28.494Z,4.40
2023-06-17T03:58:56.663Z,4.20
2023-06-17T04:01:24.751Z,4.10
2023-06-17T04:03:53.288Z,4.50
2023-06-17T04:06:21.511Z,4.65
2023-06-17T04:08:49.624Z,4.70
2023-06-17T04:11:19.103Z,4.32
2023-06-17T04:13:47.352Z,4.50
2023-06-17T04:16:16.366Z,4.60
2023-06-17T04:18:44.591Z,4.57
2023-06-17T04:21:13.085Z,5.00
2023-06-17T04:23:41.598Z,4.65
2023-06-17T04:26:14.274Z,4.85
2023-06-17T04:28:44.512Z,4.45
2023-06-17T04:31:12.993Z,4.47
2023-06-17T04:33:42.860Z,4.70
2023-06-17T04:36:12.076Z,4.88
2023-06-17T04:38:42.862Z,4.70
2023-06-17T04:41:11.330Z,4.65
2023-06-17T04:43:39.415Z,4.40
2023-06-17T04:46:11.736Z,5.30
2023-06-17T04:48:40.674Z,4.95
2023-06-17T04:51:09.500Z,4.80
2023-06-17T04:53:40.030Z,5.07
2023-06-17T04:56:08.770Z,5.00
2023-06-17T04:58:37.911Z,4.88
2023-06-17T05:01:12.499Z,5.20
2023-06-17T05:03:41.641Z,6.00
2023-06-17T05:06:10.209Z,6.03
2023-06-17T05:08:38.360Z,5.53
2023-06-17T05:11:07.507Z,5.40
2023-06-17T05:13:40.182Z,5.53
2023-06-17T05:16:08.402Z,5.18
2023-06-17T05:18:41.106Z,5.40
2023-06-17T05:21:09.261Z,5.20
2023-06-17T05:23:37.920Z,5.80
2023-06-17T05:26:07.402Z,5.95
2023-06-17T05:28:35.561Z,5.60
2023-06-17T05:31:04.012Z,5.60
2023-06-17T05:33:32.260Z,5.20
2023-06-17T05:36:01.795Z,5.63
2023-06-17T05:38:31.277Z,5.32
2023-06-17T05:40:59.426Z,5.50
2023-06-17T05:43:29.080Z,5.68
2023-06-17T05:45:58.667Z,5.18
2023-06-17T05:48:26.964Z,5.45
2023-06-17T05:50:55.427Z,5.57
2023-06-17T05:53:24.780Z,5.70
2023-06-17T05:55:53.649Z,5.05
2023-06-17T05:58:21.865Z,5.00
2023-06-17T06:00:55.643Z,5.00
2023-06-17T06:03:23.836Z,5.25
2023-06-17T06:05:52.041Z,5.45
2023-06-17T06:08:21.116Z,5.55
2023-06-17T06:10:50.668Z,5.75
2023-06-17T06:13:18.854Z,4.97
2023-06-17T06:15:47.628Z,5.20
2023-06-17T06:18:15.906Z,5.22
2023-06-17T06:20:44.221Z,5.10
2023-06-17T06:23:12.538Z,5.00
2023-06-17T06:25:40.998Z,5.07
2023-06-17T06:28:10.707Z,5.03
2023-06-17T06:30:38.790Z,5.05
2023-06-17T06:33:07.010Z,5.20
2023-06-17T06:35:35.097Z,5.35
2023-06-17T06:38:04.459Z,5.28
2023-06-17T06:40:33.844Z,5.03
2023-06-17T06:43:03.156Z,4.55
2023-06-17T06:45:42.618Z,4.95
2023-06-17T06:48:11.038Z,5.60
2023-06-17T06:50:39.229Z,5.50
2023-06-17T06:53:09.134Z,6.50
2023-06-17T06:55:37.193Z,6.13
2023-06-17T06:58:06.104Z,5.75
2023-06-17T07:00:34.277Z,5.43
2023-06-17T07:03:03.838Z,4.75
2023-06-17T07:05:32.049Z,5.10
2023-06-17T07:08:03.453Z,4.10
2023-06-17T07:10:31.784Z,3.95
2023-06-17T07:12:59.950Z,3.92
2023-06-17T07:15:28.259Z,3.97
2023-06-17T07:17:56.417Z,4.22
2023-06-17T07:20:26.039Z,4.22
2023-06-17T07:22:55.432Z,4.40
2023-06-17T07:25:23.548Z,4.10
2023-06-17T07:27:52.191Z,3.72
2023-06-17T07:30:20.760Z,3.38
2023-06-17T07:32:49.191Z,3.80
2023-06-17T07:35:17.360Z,3.78
2023-06-17T07:37:46.979Z,3.50
2023-06-17T07:40:15.217Z,3.63
2023-06-17T07:42:43.908Z,3.80
2023-06-17T07:45:12.988Z,3.55
2023-06-17T07:47:41.182Z,4.00
2023-06-17T07:50:11.269Z,4.78
2023-06-17T07:52:39.718Z,4.43
2023-06-17T07:55:10.184Z,3.80
2023-06-17T07:57:38.564Z,4.30
2023-06-17T08:00:10.671Z,4.05
2023-06-17T08:02:41.676Z,3.90
2023-06-17T08:05:10.738Z,3.67
2023-06-17T08:07:38.816Z,3.88
2023-06-17T08:10:10.533Z,4.03
2023-06-17T08:12:38.985Z,3.80
2023-06-17T08:15:09.131Z,4.90
2023-06-17T08:17:37.551Z,4.50
2023-06-17T08:20:06.529Z,5.30
2023-06-17T08:22:34.647Z,4.80
2023-06-17T08:25:02.858Z,4.28
2023-06-17T08:27:32.506Z,4.50
2023-06-17T08:30:00.816Z,5.35
2023-06-17T08:32:29.076Z,5.20
2023-06-17T08:34:57.270Z,5.85
2023-06-17T08:37:25.357Z,5.22
2023-06-17T08:39:53.441Z,4.40
2023-06-17T08:42:21.497Z,4.85
2023-06-17T08:44:52.360Z,5.95
2023-06-17T08:47:20.652Z,5.97
2023-06-17T08:49:48.747Z,4.80
2023-06-17T08:52:17.393Z,6.13
2023-06-17T08:54:46.702Z,6.32
2023-06-17T08:57:15.095Z,5.85
2023-06-17T08:59:43.521Z,5.90
2023-06-17T09:02:13.557Z,4.88
2023-06-17T09:04:42.710Z,5.22
2023-06-17T09:07:11.529Z,5.10
2023-06-17T09:09:39.972Z,5.63
2023-06-17T09:12:09.614Z,5.00
2023-06-17T09:14:38.253Z,4.68
2023-06-17T09:17:06.488Z,5.10
2023-06-17T09:19:41.232Z,5.00
2023-06-17T09:22:09.585Z,5.50
2023-06-17T09:24:44.246Z,5.20
2023-06-17T09:27:22.436Z,5.10
2023-06-17T09:30:07.743Z,4.88
2023-06-17T09:32:40.686Z,4.93
2023-06-17T09:35:15.646Z,4.53
2023-06-17T09:37:54.190Z,5.25
2023-06-17T09:40:30.712Z,4.82
2023-06-17T09:43:16.327Z,4.90
2023-06-17T09:45:46.023Z,4.47
2023-06-17T09:48:20.935Z,4.30
2023-06-17T09:50:56.938Z,4.80
2023-06-17T09:53:27.284Z,4.57
2023-06-17T09:55:58.133Z,5.00
2023-06-17T09:58:30.238Z,5.75
2023-06-17T10:00:59.522Z,4.82
2023-06-17T10:03:27.818Z,6.20
2023-06-17T10:06:02.339Z,4.57
2023-06-17T10:08:32.743Z,4.50
2023-06-17T10:11:02.261Z,4.50
2023-06-17T10:13:51.411Z,4.65
2023-06-17T10:16:24.456Z,3.95
2023-06-17T10:18:56.228Z,4.65
2023-06-17T10:21:44.956Z,4.60
2023-06-17T10:24:27.308Z,4.60
2023-06-17T10:27:27.415Z,4.18
2023-06-17T10:29:59.194Z,5.22
2023-06-17T10:32:27.522Z,5.55
2023-06-17T10:35:13.816Z,4.50
2023-06-17T10:37:45.182Z,4.50
2023-06-17T10:40:27.418Z,4.60
2023-06-17T10:43:04.240Z,4.43
2023-06-17T10:45:33.661Z,4.05
2023-06-17T10:48:17.887Z,8.23
2023-06-17T10:50:50.778Z,5.10
2023-06-17T10:53:27.423Z,4.30
2023-06-17T10:55:55.500Z,4.22
2023-06-17T10:58:23.479Z,4.97
2023-06-17T11:01:04.989Z,4.72
2023-06-17T11:03:33.618Z,5.40
2023-06-17T11:06:03.243Z,4.82
2023-06-17T11:08:34.099Z,5.05
2023-06-17T11:11:12.322Z,5.25
2023-06-17T11:13:42.027Z,4.90
2023-06-17T11:16:11.084Z,5.57
2023-06-17T11:18:40.267Z,5.32
2023-06-17T11:21:09.104Z,4.68
2023-06-17T11:23:39.999Z,5.10
2023-06-17T11:26:09.093Z,5.00
2023-06-17T11:28:37.716Z,5.05
2023-06-17T11:31:08.555Z,4.53
2023-06-17T11:33:40.082Z,5.13
2023-06-17T11:36:11.046Z,4.75
2023-06-17T11:38:40.684Z,4.22
2023-06-17T11:41:08.788Z,5.10
2023-06-17T11:43:38.145Z,4.18
2023-06-17T11:46:06.804Z,4.40
2023-06-17T11:48:36.248Z,4.80
2023-06-17T11:51:04.949Z,4.80
2023-06-17T11:53:37.065Z,4.43
2023-06-17T11:56:08.197Z,4.20
2023-06-17T11:58:38.847Z,5.05
2023-06-17T12:01:07.655Z,4.32
2023-06-17T12:03:36.160Z,4.28
2023-06-17T12:06:04.746Z,4.60
2023-06-17T12:08:34.603Z,4.47
2023-06-17T12:11:08.200Z,4.43
2023-06-17T12:13:40.582Z,4.13
2023-06-17T12:16:11.732Z,4.70
2023-06-17T12:18:39.799Z,4.93
2023-06-17T12:21:11.974Z,4.70
2023-06-17T12:23:40.057Z,3.60
2023-06-17T12:26:09.904Z,4.75
2023-06-17T12:28:37.947Z,3.97
2023-06-17T12:31:06.034Z,4.93
2023-06-17T12:33:34.161Z,4.03
2023-06-17T12:36:02.387Z,4.07
2023-06-17T12:38:32.162Z,4.13
2023-06-17T12:41:01.082Z,3.80
2023-06-17T12:43:30.649Z,3.65
2023-06-17T12:46:00.051Z,4.15
2023-06-17T12:48:28.681Z,4.15
2023-06-17T12:50:56.952Z,3.80
2023-06-17T12:53:25.295Z,3.80
2023-06-17T12:55:53.663Z,4.10
2023-06-17T12:58:21.707Z,3.80
2023-06-17T13:00:51.253Z,5.10
2023-06-17T13:03:20.080Z,3.55
2023-06-17T13:08:40.363Z,3.90
2023-06-17T13:11:08.525Z,3.17
2023-06-17T13:13:36.567Z,4.68
2023-06-17T13:16:06.410Z,3.40
2023-06-17T13:18:34.495Z,3.95
2023-06-17T13:21:02.611Z,4.03
2023-06-17T13:23:31.040Z,3.67
2023-06-17T13:25:59.123Z,3.95
2023-06-17T13:28:27.434Z,4.80
2023-06-17T13:31:03.021Z,3.95
2023-06-17T13:33:32.631Z,6.18
2023-06-17T13:36:00.774Z,4.18
2023-06-17T13:38:28.907Z,3.70
2023-06-17T13:40:57.002Z,3.60
2023-06-17T13:43:25.113Z,3.72
2023-06-17T13:45:53.298Z,4.00
2023-06-17T13:48:21.634Z,4.10
2023-06-17T13:50:51.207Z,4.10
2023-06-17T13:53:19.406Z,5.65
2023-06-17T13:55:47.776Z,3.90
2023-06-17T13:58:15.940Z,3.38
2023-06-17T14:00:44.093Z,3.35
2023-06-17T14:03:15.260Z,6.10
2023-06-17T14:05:44.640Z,3.80
2023-06-17T14:08:24.117Z,3.60
2023-06-17T14:10:52.569Z,3.60
2023-06-17T14:13:20.656Z,3.33
2023-06-17T14:15:48.834Z,4.03
2023-06-17T14:18:16.888Z,3.58
2023-06-17T14:20:44.924Z,3.80
2023-06-17T14:23:13.034Z,3.50
2023-06-17T14:25:42.474Z,3.75
2023-06-17T14:28:10.545Z,3.78
2023-06-17T14:30:39.802Z,3.58
2023-06-17T14:33:08.898Z,3.42
2023-06-17T14:35:36.955Z,3.70
2023-06-17T14:38:06.038Z,3.80
2023-06-17T14:40:34.328Z,3.80
2023-06-17T14:43:05.216Z,3.75
2023-06-17T14:45:33.376Z,3.72
2023-06-17T14:48:01.619Z,3.47
2023-06-17T14:50:29.770Z,3.88
2023-06-17T14:52:57.809Z,3.67
2023-06-17T14:55:26.156Z,3.97
2023-06-17T14:57:54.250Z,3.47
2023-06-17T15:00:23.965Z,3.70
2023-06-17T15:02:59.409Z,3.63
2023-06-17T15:05:28.718Z,3.42
2023-06-17T15:07:56.954Z,3.63
2023-06-17T15:10:25.305Z,3.85
2023-06-17T15:12:53.446Z,3.80
2023-06-17T15:15:23.247Z,4.10
2023-06-17T15:17:52.327Z,3.55
2023-06-17T15:20:21.189Z,3.55
2023-06-17T15:22:49.475Z,3.70
2023-06-17T15:25:17.660Z,3.40
2023-06-17T15:27:45.711Z,3.97
2023-06-17T15:30:14.370Z,3.42
2023-06-17T15:32:43.958Z,4.13
2023-06-17T15:35:12.027Z,3.80
2023-06-17T15:37:40.263Z,3.53
2023-06-17T15:40:09.906Z,3.33
2023-06-17T15:42:38.086Z,3.92
2023-06-17T15:45:07.532Z,3.72
2023-06-17T15:47:35.842Z,3.42
2023-06-17T15:50:05.935Z,3.97
2023-06-17T15:52:34.069Z,4.10
2023-06-17T15:55:02.675Z,4.18
2023-06-17T15:57:30.823Z,3.80
2023-06-17T15:59:59.052Z,4.22
2023-06-17T16:02:27.919Z,5.70
2023-06-17T16:04:56.148Z,4.53
2023-06-17T16:07:25.695Z,3.90
2023-06-17T16:09:54.035Z,3.55
2023-06-17T16:12:23.243Z,3.75
2023-06-17T16:14:51.299Z,3.60
2023-06-17T16:17:19.779Z,3.35
2023-06-17T16:19:47.910Z,3.55
2023-06-17T16:22:15.994Z,9.57
2023-06-17T16:24:45.490Z,4.00
2023-06-17T16:27:13.676Z,5.50
2023-06-17T16:29:41.815Z,3.97
2023-06-17T16:32:11.183Z,3.58
2023-06-17T16:34:39.661Z,4.00
2023-06-17T16:37:07.787Z,3.50
2023-06-17T16:39:36.571Z,3.47
2023-06-17T16:42:07.621Z,3.92
2023-06-17T16:44:36.317Z,3.40
2023-06-17T16:47:04.585Z,4.40
2023-06-17T16:49:32.801Z,3.65
2023-06-17T16:52:00.886Z,3.30
2023-06-17T16:54:28.995Z,3.58
2023-06-17T16:56:57.332Z,3.28
2023-06-17T16:59:26.937Z,3.10
2023-06-17T17:01:56.388Z,3.38
2023-06-17T17:04:24.688Z,6.50
2023-06-17T17:06:52.736Z,4.32
2023-06-17T17:09:20.900Z,3.17
2023-06-17T17:11:48.991Z,3.45
2023-06-17T17:14:17.037Z,3.20
2023-06-17T17:16:46.839Z,3.55
2023-06-17T17:19:15.093Z,4.05
2023-06-17T17:21:43.230Z,3.63
2023-06-17T17:24:11.535Z,3.28
2023-06-17T17:26:39.631Z,3.60
2023-06-17T17:29:07.748Z,3.40
2023-06-17T17:31:35.919Z,3.00
2023-06-17T17:34:05.291Z,3.25
2023-06-17T17:36:33.354Z,3.28
2023-06-17T17:39:01.472Z,3.67
2023-06-17T17:41:29.789Z,3.60
2023-06-17T17:43:57.954Z,3.72
2023-06-17T17:46:26.174Z,3.85
2023-06-17T17:48:54.349Z,3.55
2023-06-17T17:51:23.841Z,4.18
2023-06-17T17:53:51.924Z,3.50
2023-06-17T17:56:19.975Z,3.60
2023-06-17T17:58:48.058Z,3.78
2023-06-17T18:01:16.987Z,3.83
2023-06-17T18:03:45.264Z,4.10
2023-06-17T18:06:13.372Z,3.85
2023-06-17T18:08:42.757Z,3.92
2023-06-17T18:11:10.865Z,4.05
2023-06-17T18:13:39.109Z,4.03
2023-06-17T18:16:07.700Z,3.65
2023-06-17T18:18:35.912Z,4.50
2023-06-17T18:21:04.134Z,4.35
2023-06-17T18:23:32.271Z,4.05
2023-06-17T18:26:01.813Z,4.68
2023-06-17T18:28:29.803Z,5.43
2023-06-17T18:30:57.844Z,5.10
2023-06-17T18:33:25.955Z,5.22
2023-06-17T18:35:54.001Z,5.03
2023-06-17T18:38:22.046Z,4.95
2023-06-17T18:40:50.622Z,5.00
2023-06-17T18:43:21.745Z,5.38
2023-06-17T18:45:52.731Z,4.78
2023-06-17T18:48:21.273Z,4.38
2023-06-17T18:50:49.385Z,4.72
2023-06-17T18:53:17.540Z,4.45
2023-06-17T18:55:45.759Z,5.00
2023-06-17T18:58:13.864Z,4.30
2023-06-17T19:00:43.350Z,4.13
2023-06-17T19:03:11.516Z,4.75
2023-06-17T19:05:40.671Z,4.95
2023-06-17T19:08:08.903Z,4.68
2023-06-17T19:10:36.928Z,5.68
2023-06-17T19:13:04.951Z,6.30
2023-06-17T19:15:34.209Z,7.72
2023-06-17T19:18:03.930Z,6.93
2023-06-17T19:20:32.072Z,6.50
2023-06-17T19:23:00.221Z,7.13
2023-06-17T19:25:28.390Z,9.18
2023-06-17T19:27:56.521Z,7.40
2023-06-17T19:30:24.834Z,11.65
2023-06-17T19:32:53.139Z,21.17
2023-06-17T19:35:22.551Z,13.23
2023-06-17T19:37:50.658Z,9.30
2023-06-17T19:40:18.916Z,8.40
2023-06-17T19:42:47.129Z,9.02
2023-06-17T19:45:15.682Z,10.82
2023-06-17T19:47:44.005Z,14.20
2023-06-17T19:50:12.877Z,10.50
2023-06-17T19:52:42.237Z,8.68
2023-06-17T19:55:11.478Z,7.68
2023-06-17T19:57:39.504Z,6.97
2023-06-17T20:00:08.840Z,6.90
2023-06-17T20:02:43.060Z,7.40
2023-06-17T20:05:12.477Z,7.28
2023-06-17T20:07:41.991Z,7.45
2023-06-17T20:10:10.847Z,8.10
2023-06-17T20:12:38.901Z,8.18
2023-06-17T20:15:08.124Z,8.95
2023-06-17T20:17:36.361Z,8.75
2023-06-17T20:20:04.719Z,6.78
2023-06-17T20:22:32.923Z,6.80
2023-06-17T20:25:02.383Z,8.13
2023-06-17T20:27:30.450Z,8.43
2023-06-17T20:29:58.456Z,7.65
2023-06-17T20:32:26.617Z,6.90
2023-06-17T20:34:54.729Z,6.40
2023-06-17T20:37:22.890Z,6.60
2023-06-17T20:39:51.009Z,6.30
2023-06-17T20:42:20.591Z,5.50
2023-06-17T20:44:50.542Z,6.50
2023-06-17T20:47:18.778Z,6.40
2023-06-17T20:49:49.619Z,6.82
2023-06-17T20:52:18.299Z,6.72
2023-06-17T20:54:46.487Z,6.35
2023-06-17T20:57:14.543Z,6.70
2023-06-17T20:59:44.425Z,6.93
2023-06-17T21:02:15.095Z,6.15
2023-06-17T21:04:44.288Z,6.05
2023-06-17T21:07:12.247Z,6.55
2023-06-17T21:09:40.867Z,6.50
2023-06-17T21:12:09.320Z,6.80
2023-06-17T21:14:37.520Z,6.82
2023-06-17T21:17:07.254Z,6.30
2023-06-17T21:19:35.664Z,7.20
2023-06-17T21:22:07.069Z,7.18
2023-06-17T21:24:35.331Z,6.78
2023-06-17T21:27:10.117Z,6.40
2023-06-17T21:29:38.627Z,6.55
2023-06-17T21:32:10.412Z,6.07
2023-06-17T21:34:38.543Z,6.00
2023-06-17T21:37:06.634Z,6.75
2023-06-17T21:39:34.796Z,6.63
2023-06-17T21:42:02.944Z,7.38
2023-06-17T21:44:32.672Z,7.28
2023-06-17T21:47:02.362Z,7.18
2023-06-17T21:49:31.768Z,6.85
2023-06-17T21:52:00.028Z,7.55
2023-06-17T21:54:28.203Z,7.70
2023-06-17T21:56:56.188Z,8.38
2023-06-17T21:59:29.015Z,7.63
2023-06-17T22:01:57.365Z,8.07
2023-06-17T22:04:25.454Z,7.90
2023-06-17T22:06:56.919Z,7.43
2023-06-17T22:09:25.089Z,7.60
2023-06-17T22:11:53.291Z,7.32
2023-06-17T22:14:21.367Z,7.63
2023-06-17T22:16:49.340Z,6.78
2023-06-17T22:19:17.531Z,7.30
2023-06-17T22:21:45.712Z,7.15
2023-06-17T22:24:15.343Z,6.85
2023-06-17T22:26:43.583Z,7.10
2023-06-17T22:29:11.740Z,7.07
2023-06-17T22:31:39.822Z,7.30
2023-06-17T22:34:07.857Z,7.10
2023-06-17T22:36:35.871Z,7.18
2023-06-17T22:39:03.997Z,7.35
2023-06-17T22:41:33.488Z,7.60
2023-06-17T22:44:01.586Z,7.38
2023-06-17T22:46:29.638Z,7.70
2023-06-17T22:48:57.784Z,7.38
2023-06-17T22:51:26.883Z,7.80
2023-06-17T22:53:54.956Z,7.57
2023-06-17T22:56:22.997Z,6.85
2023-06-17T22:58:52.424Z,7.75
2023-06-17T23:01:20.834Z,7.40
2023-06-17T23:03:48.927Z,7.68
2023-06-17T23:06:17.061Z,6.90
2023-06-17T23:08:45.148Z,7.47
2023-06-17T23:11:13.241Z,8.10
2023-06-17T23:13:41.274Z,7.57
2023-06-17T23:16:10.769Z,8.38
2023-06-17T23:18:38.858Z,8.07
2023-06-17T23:21:06.929Z,7.85
2023-06-17T23:23:37.853Z,7.78
2023-06-17T23:26:05.861Z,8.05
2023-06-17T23:28:34.495Z,7.80
2023-06-17T23:31:03.543Z,7.60
2023-06-17T23:33:33.679Z,7.80
2023-06-17T23:36:02.744Z,7.97
2023-06-17T23:38:33.468Z,8.27
2023-06-17T23:41:01.565Z,8.43
2023-06-17T23:43:29.661Z,8.25
2023-06-17T23:45:58.217Z,8.40
2023-06-17T23:48:26.646Z,8.23
2023-06-17T23:50:56.179Z,7.90
2023-06-17T23:53:24.341Z,7.95
2023-06-17T23:55:52.342Z,8.27
2023-06-17T23:58:20.408Z,8.00
